createdAt,value
2022-12-15T00:02:05.626Z,98241.09
2022-12-15T00:04:50.626Z,98239.69
2022-12-15T00:07:35.625Z,98243.69
2022-12-15T00:10:20.343Z,98243.78
2022-12-15T00:13:05.510Z,98233.38
2022-12-15T00:15:50.434Z,98233.47
2022-12-15T00:18:35.239Z,98229.19
2022-12-15T00:21:20.018Z,98232.06
2022-12-15T00:24:04.858Z,98225.28
2022-12-15T00:26:49.718Z,98233.38
2022-12-15T00:29:34.498Z,98234.50
2022-12-15T00:32:19.550Z,98230.31
2022-12-15T00:35:04.531Z,98234.16
2022-12-15T00:37:52.718Z,98234.91
2022-12-15T00:40:19.126Z,98233.47
2022-12-15T00:42:45.588Z,98236.84
2022-12-15T00:45:16.242Z,98247.56
2022-12-15T00:47:42.652Z,98239.91
2022-12-15T00:50:27.742Z,98247.56
2022-12-15T00:53:12.795Z,98241.03
2022-12-15T00:55:57.460Z,98242.28
2022-12-15T00:58:42.562Z,98235.50
2022-12-15T01:01:28.763Z,98248.38
2022-12-15T01:04:14.068Z,98249.69
2022-12-15T01:06:59.351Z,98254.13
2022-12-15T01:09:44.313Z,98254.34
2022-12-15T01:12:29.133Z,98265.63
2022-12-15T01:15:13.923Z,98266.66
2022-12-15T01:17:58.800Z,98271.63
2022-12-15T01:20:25.205Z,98287.00
2022-12-15T01:22:54.075Z,98284.09
2022-12-15T01:25:22.899Z,98280.97
2022-12-15T01:27:49.771Z,98278.63
2022-12-15T01:30:23.738Z,98278.91
2022-12-15T01:32:50.221Z,98275.88
2022-12-15T01:35:17.598Z,98275.69
2022-12-15T01:37:44.714Z,98283.50
2022-12-15T01:40:35.408Z,98283.63
2022-12-15T01:43:02.206Z,98287.25
2022-12-15T01:45:28.555Z,98290.25
2022-12-15T01:47:56.366Z,98291.34
2022-12-15T01:50:23.811Z,98296.59
2022-12-15T01:52:50.659Z,98297.38
2022-12-15T01:55:18.756Z,98298.34
2022-12-15T01:57:46.798Z,98290.72
2022-12-15T02:00:14.336Z,98300.63
2022-12-15T02:02:41.277Z,98306.94
2022-12-15T02:05:08.050Z,98303.16
2022-12-15T02:07:34.421Z,98298.53
2022-12-15T02:10:03.605Z,98296.91
2022-12-15T02:13:04.460Z,98293.88
2022-12-15T02:15:44.711Z,98303.41
2022-12-15T02:18:22.650Z,98305.06
2022-12-15T02:20:53.331Z,98305.44
2022-12-15T02:23:40.644Z,98309.47
2022-12-15T02:26:27.295Z,98315.75
2022-12-15T02:29:15.671Z,98304.81
2022-12-15T02:31:51.448Z,98311.22
2022-12-15T02:34:34.918Z,98330.06
2022-12-15T02:37:20.926Z,98336.34
2022-12-15T02:39:47.366Z,98330.56
2022-12-15T02:42:14.058Z,98332.06
2022-12-15T02:44:53.983Z,98326.19
2022-12-15T02:47:46.181Z,98333.19
2022-12-15T02:50:40.567Z,98335.56
2022-12-15T02:53:20.275Z,98341.19
2022-12-15T02:56:08.447Z,98348.84
2022-12-15T02:58:48.522Z,98342.03
2022-12-15T03:01:23.078Z,98338.81
2022-12-15T03:03:50.131Z,98337.91
2022-12-15T03:06:16.861Z,98333.50
2022-12-15T03:08:43.262Z,98332.16
2022-12-15T03:11:09.643Z,98333.34
2022-12-15T03:13:36.183Z,98331.75
2022-12-15T03:16:03.055Z,98331.97
2022-12-15T03:18:29.544Z,98334.56
2022-12-15T03:20:55.925Z,98339.94
2022-12-15T03:23:23.050Z,98330.66
2022-12-15T03:25:50.351Z,98334.94
2022-12-15T03:28:16.933Z,98331.44
2022-12-15T03:30:43.455Z,98333.13
2022-12-15T03:33:11.266Z,98336.03
2022-12-15T03:35:37.647Z,98340.13
2022-12-15T03:38:04.075Z,98327.06
2022-12-15T03:40:30.503Z,98322.03
2022-12-15T03:42:57.984Z,98324.41
2022-12-15T03:45:26.491Z,98320.78
2022-12-15T03:47:54.207Z,98315.00
2022-12-15T03:50:23.424Z,98329.25
2022-12-15T03:52:52.113Z,98327.22
2022-12-15T03:55:19.015Z,98331.50
2022-12-15T03:57:45.434Z,98329.56
2022-12-15T04:00:14.879Z,98327.53
2022-12-15T04:02:42.504Z,98329.00
2022-12-15T04:05:09.544Z,98330.72
2022-12-15T04:07:36.032Z,98334.53
2022-12-15T04:10:02.443Z,98335.28
2022-12-15T04:12:28.850Z,98333.66
2022-12-15T04:14:55.328Z,98341.03
2022-12-15T04:17:21.741Z,98337.25
2022-12-15T04:20:06.688Z,98328.13
2022-12-15T04:22:33.105Z,98326.59
2022-12-15T04:25:18.075Z,98335.41
2022-12-15T04:28:03.213Z,98341.28
2022-12-15T04:30:49.596Z,98346.38
2022-12-15T04:33:35.418Z,98334.28
2022-12-15T04:36:20.761Z,98329.03
2022-12-15T04:39:05.823Z,98326.44
2022-12-15T04:41:51.032Z,98331.25
2022-12-15T04:44:36.212Z,98340.25
2022-12-15T04:47:21.862Z,98332.41
2022-12-15T04:50:07.068Z,98335.50
2022-12-15T04:52:51.880Z,98339.72
2022-12-15T04:55:36.652Z,98343.63
2022-12-15T04:58:26.694Z,98354.91
2022-12-15T05:01:12.303Z,98347.69
2022-12-15T05:03:57.697Z,98360.09
2022-12-15T05:06:42.395Z,98370.72
2022-12-15T05:09:27.209Z,98371.19
2022-12-15T05:12:12.586Z,98385.41
2022-12-15T05:14:57.651Z,98387.81
2022-12-15T05:17:42.557Z,98400.00
2022-12-15T05:20:28.101Z,98400.19
2022-12-15T05:23:14.522Z,98374.09
2022-12-15T05:25:59.699Z,98377.69
2022-12-15T05:28:44.647Z,98379.19
2022-12-15T05:31:29.509Z,98379.94
2022-12-15T05:34:02.636Z,98385.47
2022-12-15T05:36:31.451Z,98379.81
2022-12-15T05:38:57.867Z,98373.91
2022-12-15T05:41:24.459Z,98376.28
2022-12-15T05:43:50.847Z,98376.41
2022-12-15T05:46:17.291Z,98376.88
2022-12-15T05:48:43.830Z,98382.78
2022-12-15T05:51:11.457Z,98383.50
2022-12-15T05:53:38.999Z,98383.69
2022-12-15T05:56:07.520Z,98390.22
2022-12-15T05:58:33.952Z,98393.34
2022-12-15T06:01:14.295Z,98405.53
2022-12-15T06:03:41.828Z,98404.72
2022-12-15T06:06:09.556Z,98401.97
2022-12-15T06:08:37.630Z,98399.75
2022-12-15T06:11:04.643Z,98398.56
2022-12-15T06:13:33.499Z,98405.78
2022-12-15T06:16:21.025Z,98401.50
2022-12-15T06:18:53.019Z,98403.28
2022-12-15T06:21:26.251Z,98393.28
2022-12-15T06:23:53.014Z,98395.22
2022-12-15T06:26:23.302Z,98397.41
2022-12-15T06:28:50.654Z,98397.91
2022-12-15T06:31:22.517Z,98408.66
2022-12-15T06:33:50.055Z,98409.53
2022-12-15T06:36:17.731Z,98401.59
2022-12-15T06:38:44.696Z,98395.59
2022-12-15T06:41:18.177Z,98398.63
2022-12-15T06:43:50.011Z,98397.03
2022-12-15T06:46:16.630Z,98400.16
2022-12-15T06:48:45.788Z,98398.72
2022-12-15T06:51:17.176Z,98402.38
2022-12-15T06:53:48.723Z,98402.63
2022-12-15T06:56:30.728Z,98402.81
2022-12-15T06:59:00.121Z,98394.25
2022-12-15T07:01:26.740Z,98390.31
2022-12-15T07:03:54.026Z,98382.53
2022-12-15T07:06:21.498Z,98384.31
2022-12-15T07:08:52.666Z,98388.59
2022-12-15T07:11:20.909Z,98392.56
2022-12-15T07:13:51.522Z,98384.03
2022-12-15T07:16:18.677Z,98387.56
2022-12-15T07:18:45.378Z,98400.28
2022-12-15T07:21:11.820Z,98396.72
2022-12-15T07:23:56.339Z,98393.50
2022-12-15T07:26:23.804Z,98406.16
2022-12-15T07:28:50.289Z,98405.72
2022-12-15T07:31:17.625Z,98408.63
2022-12-15T07:33:44.192Z,98404.69
2022-12-15T07:36:10.980Z,98405.28
2022-12-15T07:38:37.488Z,98411.72
2022-12-15T07:41:06.788Z,98411.78
2022-12-15T07:43:33.921Z,98408.09
2022-12-15T07:46:00.818Z,98416.16
2022-12-15T07:48:27.508Z,98423.22
2022-12-15T07:51:02.857Z,98426.28
2022-12-15T07:53:33.780Z,98444.97
2022-12-15T07:56:07.570Z,98456.31
2022-12-15T07:58:35.403Z,98457.31
2022-12-15T08:01:03.388Z,98467.34
2022-12-15T08:03:30.912Z,98465.44
2022-12-15T08:06:03.665Z,98463.50
2022-12-15T08:08:31.160Z,98455.72
2022-12-15T08:10:57.904Z,98451.16
2022-12-15T08:14:00.241Z,98454.94
2022-12-15T08:16:11.634Z,98473.47
2022-12-15T08:18:39.468Z,98477.59
2022-12-15T08:21:10.288Z,98488.19
2022-12-15T08:23:36.959Z,98498.47
2022-12-15T08:26:09.416Z,98491.41
2022-12-15T08:28:36.639Z,98502.75
2022-12-15T08:31:04.677Z,98502.44
2022-12-15T08:33:31.864Z,98502.22
2022-12-15T08:36:05.013Z,98495.31
2022-12-15T08:38:31.796Z,98494.63
2022-12-15T08:40:58.707Z,98496.25
2022-12-15T08:43:25.093Z,98500.06
2022-12-15T08:45:51.589Z,98500.00
2022-12-15T08:48:18.076Z,98498.19
2022-12-15T08:50:45.841Z,98493.63
2022-12-15T08:53:30.810Z,98497.41
2022-12-15T08:56:05.730Z,98498.38
2022-12-15T08:58:32.725Z,98497.75
2022-12-15T09:01:06.910Z,98514.53
2022-12-15T09:03:34.557Z,98514.03
2022-12-15T09:06:10.183Z,98511.22
2022-12-15T09:08:36.570Z,98507.00
2022-12-15T09:11:05.426Z,98505.81
2022-12-15T09:13:32.940Z,98507.34
2022-12-15T09:16:09.859Z,98507.28
2022-12-15T09:18:37.317Z,98498.53
2022-12-15T09:21:05.775Z,98495.81
2022-12-15T09:23:32.779Z,98509.75
2022-12-15T09:26:04.678Z,98510.19
2022-12-15T09:28:32.061Z,98509.56
2022-12-15T09:31:08.854Z,98514.31
2022-12-15T09:33:36.245Z,98512.31
2022-12-15T09:36:03.696Z,98511.84
2022-12-15T09:38:30.969Z,98505.97
2022-12-15T09:40:57.495Z,98502.34
2022-12-15T09:43:35.244Z,98502.13
2022-12-15T09:46:20.675Z,98502.38
2022-12-15T09:48:48.041Z,98512.19
2022-12-15T09:51:16.937Z,98519.00
2022-12-15T09:53:59.249Z,98521.03
2022-12-15T09:56:53.208Z,98510.72
2022-12-15T09:59:46.593Z,98495.66
2022-12-15T10:02:27.008Z,98499.91
2022-12-15T10:05:15.143Z,98503.97
2022-12-15T10:07:50.535Z,98501.84
2022-12-15T10:10:25.960Z,98509.41
2022-12-15T10:13:04.888Z,98507.63
2022-12-15T10:15:41.475Z,98505.88
2022-12-15T10:18:14.042Z,98499.38
2022-12-15T10:20:40.530Z,98487.69
2022-12-15T10:23:13.630Z,98482.41
2022-12-15T10:25:46.129Z,98484.03
2022-12-15T10:28:44.783Z,98475.63
2022-12-15T10:31:32.795Z,98482.41
2022-12-15T10:34:10.172Z,98491.44
2022-12-15T10:36:36.953Z,98481.78
2022-12-15T10:39:03.440Z,98466.03
2022-12-15T10:41:32.419Z,98460.50
2022-12-15T10:43:58.897Z,98471.06
2022-12-15T10:46:27.905Z,98467.78
2022-12-15T10:48:57.518Z,98468.03
2022-12-15T10:51:32.328Z,98454.69
2022-12-15T10:54:19.052Z,98452.56
2022-12-15T10:56:53.876Z,98449.41
2022-12-15T10:59:36.040Z,98442.59
2022-12-15T11:02:24.128Z,98441.09
2022-12-15T11:05:02.945Z,98441.97
2022-12-15T11:07:36.410Z,98439.56
2022-12-15T11:10:14.034Z,98432.03
2022-12-15T11:12:58.104Z,98429.25
2022-12-15T11:15:24.872Z,98423.34
2022-12-15T11:18:00.882Z,98412.63
2022-12-15T11:20:31.652Z,98401.06
2022-12-15T11:23:04.925Z,98396.50
2022-12-15T11:25:45.209Z,98388.22
2022-12-15T11:28:18.519Z,98375.97
2022-12-15T11:30:59.988Z,98378.09
2022-12-15T11:33:26.428Z,98372.41
2022-12-15T11:36:01.297Z,98373.06
2022-12-15T11:38:44.457Z,98375.81
2022-12-15T11:41:22.888Z,98366.38
2022-12-15T11:44:04.260Z,98369.91
2022-12-15T11:46:51.260Z,98355.66
2022-12-15T11:49:50.854Z,98357.53
2022-12-15T11:52:17.203Z,98352.00
2022-12-15T11:55:10.857Z,98349.84
2022-12-15T11:58:06.288Z,98346.59
2022-12-15T12:00:39.940Z,98340.91
2022-12-15T12:03:31.904Z,98323.06
2022-12-15T12:06:13.291Z,98324.28
2022-12-15T12:08:45.702Z,98322.00
2022-12-15T12:11:17.016Z,98310.38
2022-12-15T12:14:11.791Z,98307.78
2022-12-15T12:16:46.981Z,98315.13
2022-12-15T12:19:24.197Z,98315.84
2022-12-15T12:21:56.137Z,98308.81
2022-12-15T12:24:37.448Z,98310.72
2022-12-15T12:27:27.469Z,98313.75
2022-12-15T12:30:00.736Z,98308.47
2022-12-15T12:32:40.343Z,98305.28
2022-12-15T12:38:10.161Z,98297.97
2022-12-15T12:41:02.605Z,98301.72
2022-12-15T12:44:07.650Z,98301.72
2022-12-15T12:46:39.207Z,98299.97
2022-12-15T12:49:12.436Z,98290.31
2022-12-15T12:51:40.548Z,98290.31
2022-12-15T12:54:37.991Z,98291.41
2022-12-15T12:57:13.529Z,98290.66
2022-12-15T13:00:00.757Z,98290.00
2022-12-15T13:02:27.216Z,98277.38
2022-12-15T13:05:27.511Z,98268.03
2022-12-15T13:08:13.803Z,98265.50
2022-12-15T13:10:42.432Z,98253.16
2022-12-15T13:13:42.080Z,98250.38
2022-12-15T13:16:24.500Z,98237.75
2022-12-15T13:19:09.197Z,98228.91
2022-12-15T13:21:41.736Z,98222.63
2022-12-15T13:24:26.021Z,98229.09
2022-12-15T13:26:52.877Z,98227.94
2022-12-15T13:29:23.038Z,98228.13
2022-12-15T13:31:50.150Z,98222.31
2022-12-15T13:34:20.240Z,98225.81
2022-12-15T13:36:54.802Z,98230.66
2022-12-15T13:39:27.706Z,98226.16
2022-12-15T13:42:31.529Z,98217.03
2022-12-15T13:44:45.364Z,98220.09
2022-12-15T13:47:30.766Z,98220.03
2022-12-15T13:50:06.192Z,98214.63
2022-12-15T13:55:38.237Z,98218.16
2022-12-15T13:58:16.250Z,98209.59
2022-12-15T14:00:56.764Z,98209.16
2022-12-15T14:03:23.719Z,98211.56
2022-12-15T14:05:57.048Z,98216.81
2022-12-15T14:08:27.226Z,98220.22
2022-12-15T14:10:55.847Z,98219.59
2022-12-15T14:13:34.887Z,98219.25
2022-12-15T14:16:05.298Z,98233.38
2022-12-15T14:18:34.193Z,98229.78
2022-12-15T14:21:02.225Z,98223.22
2022-12-15T14:23:40.356Z,98226.28
2022-12-15T14:26:09.246Z,98235.03
2022-12-15T14:28:37.718Z,98230.44
2022-12-15T14:31:07.218Z,98229.00
2022-12-15T14:33:36.518Z,98222.97
2022-12-15T14:36:08.083Z,98228.88
2022-12-15T14:38:57.708Z,98222.44
2022-12-15T14:41:28.226Z,98223.53
2022-12-15T14:44:31.440Z,98241.41
2022-12-15T14:46:48.759Z,98226.25
2022-12-15T14:49:20.794Z,98229.00
2022-12-15T14:51:50.881Z,98224.84
2022-12-15T14:54:37.873Z,98225.72
2022-12-15T14:57:21.962Z,98229.66
2022-12-15T14:59:49.075Z,98221.00
2022-12-15T15:02:26.966Z,98229.56
2022-12-15T15:03:11.540Z,98304.34
2022-12-15T15:05:03.299Z,98232.63
2022-12-15T15:07:34.551Z,98234.16
2022-12-15T15:10:01.711Z,98237.84
2022-12-15T15:12:48.362Z,98237.97
2022-12-15T15:15:17.103Z,98232.28
2022-12-15T15:17:54.913Z,98240.06
2022-12-15T15:20:36.006Z,98244.31
2022-12-15T15:23:13.314Z,98252.97
2022-12-15T15:25:42.557Z,98258.78
2022-12-15T15:28:19.201Z,98260.84
2022-12-15T15:30:48.526Z,98259.66
2022-12-15T15:33:16.483Z,98260.63
2022-12-15T15:35:44.278Z,98262.34
2022-12-15T15:38:18.700Z,98257.09
2022-12-15T15:40:49.895Z,98259.03
2022-12-15T15:43:16.525Z,98254.25
2022-12-15T15:45:43.185Z,98255.53
2022-12-15T15:48:17.475Z,98257.09
2022-12-15T15:50:44.292Z,98248.88
2022-12-15T15:53:16.506Z,98250.16
2022-12-15T15:55:43.310Z,98244.50
2022-12-15T15:58:13.074Z,98244.59
2022-12-15T16:00:40.118Z,98239.31
2022-12-15T16:03:07.178Z,98237.34
2022-12-15T16:05:33.931Z,98232.38
2022-12-15T16:08:00.985Z,98237.34
2022-12-15T16:10:28.071Z,98231.97
2022-12-15T16:12:55.772Z,98241.47
2022-12-15T16:15:25.812Z,98239.94
2022-12-15T16:17:52.961Z,98244.28
2022-12-15T16:20:21.530Z,98248.81
2022-12-15T16:22:51.110Z,98255.13
2022-12-15T16:25:20.113Z,98264.44
2022-12-15T16:27:46.616Z,98264.88
2022-12-15T16:30:18.511Z,98273.19
2022-12-15T16:32:45.015Z,98281.03
2022-12-15T16:35:12.502Z,98272.44
2022-12-15T16:37:40.042Z,98276.81
2022-12-15T16:40:22.783Z,98283.56
2022-12-15T16:42:58.276Z,98281.31
2022-12-15T16:45:27.251Z,98294.06
2022-12-15T16:47:53.784Z,98296.34
2022-12-15T16:50:26.184Z,98291.25
2022-12-15T16:52:53.950Z,98297.69
2022-12-15T16:55:25.290Z,98296.16
2022-12-15T16:57:52.626Z,98294.19
2022-12-15T17:00:22.124Z,98282.34
2022-12-15T17:02:49.193Z,98277.63
2022-12-15T17:05:16.091Z,98281.13
2022-12-15T17:07:43.558Z,98282.72
2022-12-15T17:10:18.346Z,98282.06
2022-12-15T17:12:45.177Z,98277.78
2022-12-15T17:15:26.530Z,98282.03
2022-12-15T17:17:54.945Z,98290.03
2022-12-15T17:20:31.555Z,98281.22
2022-12-15T17:23:19.621Z,98283.97
2022-12-15T17:26:21.128Z,98280.72
2022-12-15T17:28:36.647Z,98278.63
2022-12-15T17:31:03.801Z,98275.88
2022-12-15T17:33:33.239Z,98275.22
2022-12-15T17:36:02.099Z,98264.03
2022-12-15T17:38:28.685Z,98263.16
2022-12-15T17:40:55.464Z,98269.06
2022-12-15T17:43:29.476Z,98263.03
2022-12-15T17:46:00.107Z,98273.28
2022-12-15T17:48:26.501Z,98266.41
2022-12-15T17:50:53.300Z,98262.69
2022-12-15T17:53:21.266Z,98268.47
2022-12-15T17:55:49.671Z,98263.97
2022-12-15T17:58:18.818Z,98270.09
2022-12-15T18:00:49.160Z,98259.56
2022-12-15T18:03:16.517Z,98252.25
2022-12-15T18:05:43.273Z,98254.78
2022-12-15T18:08:16.303Z,98252.91
2022-12-15T18:10:42.752Z,98255.13
2022-12-15T18:13:33.305Z,98252.38
2022-12-15T18:16:02.010Z,98260.16
2022-12-15T18:18:28.743Z,98259.38
2022-12-15T18:21:00.209Z,98262.16
2022-12-15T18:23:30.568Z,98263.16
2022-12-15T18:26:02.669Z,98254.63
2022-12-15T18:28:31.996Z,98255.38
2022-12-15T18:31:10.443Z,98261.91
2022-12-15T18:33:36.950Z,98256.78
2022-12-15T18:36:03.599Z,98250.63
2022-12-15T18:38:30.200Z,98260.22
2022-12-15T18:41:00.343Z,98260.22
2022-12-15T18:43:32.536Z,98255.94
2022-12-15T18:45:59.318Z,98252.13
2022-12-15T18:48:31.277Z,98258.47
2022-12-15T18:50:59.287Z,98257.09
2022-12-15T18:53:34.828Z,98258.47
2022-12-15T18:56:06.276Z,98252.13
2022-12-15T18:58:37.822Z,98256.69
2022-12-15T19:01:05.471Z,98259.72
2022-12-15T19:03:32.742Z,98263.34
2022-12-15T19:05:59.312Z,98271.03
2022-12-15T19:08:25.894Z,98278.34
2022-12-15T19:10:55.922Z,98267.81
2022-12-15T19:13:25.427Z,98280.72
2022-12-15T19:15:53.224Z,98275.69
2022-12-15T19:18:40.750Z,98278.63
2022-12-15T19:21:48.443Z,98283.19
2022-12-15T19:24:44.908Z,98277.00
2022-12-15T19:27:13.236Z,98275.78
2022-12-15T19:29:40.463Z,98267.06
2022-12-15T19:32:07.788Z,98261.56
2022-12-15T19:34:34.803Z,98270.38
2022-12-15T19:37:01.875Z,98261.16
2022-12-15T19:39:29.149Z,98265.63
2022-12-15T19:41:55.960Z,98265.63
2022-12-15T19:44:22.456Z,98263.97
2022-12-15T19:46:48.876Z,98265.13
2022-12-15T19:49:15.371Z,98263.97
2022-12-15T19:51:42.559Z,98264.22
2022-12-15T19:54:16.076Z,98270.75
2022-12-15T19:56:42.517Z,98264.50
2022-12-15T19:59:24.610Z,98275.94
2022-12-15T20:01:51.766Z,98269.53
2022-12-15T20:04:22.436Z,98276.66
2022-12-15T20:06:50.570Z,98281.97
2022-12-15T20:09:18.531Z,98271.78
2022-12-15T20:11:45.507Z,98280.19
2022-12-15T20:14:13.430Z,98285.38
2022-12-15T20:16:40.105Z,98284.63
2022-12-15T20:19:06.910Z,98284.72
2022-12-15T20:21:38.789Z,98282.72
2022-12-15T20:24:08.108Z,98271.91
2022-12-15T20:26:36.331Z,98275.72
2022-12-15T20:29:03.759Z,98277.41
2022-12-15T20:31:30.261Z,98276.94
2022-12-15T20:33:56.772Z,98274.00
2022-12-15T20:36:25.949Z,98277.41
2022-12-15T20:38:53.178Z,98278.22
2022-12-15T20:41:25.162Z,98272.41
2022-12-15T20:43:52.550Z,98279.47
2022-12-15T20:46:33.583Z,98279.63
2022-12-15T20:49:00.163Z,98277.44
2022-12-15T20:51:32.109Z,98278.69
2022-12-15T20:54:00.836Z,98285.13
2022-12-15T20:56:27.980Z,98282.94
2022-12-15T20:58:55.971Z,98284.72
2022-12-15T21:01:28.534Z,98280.72
2022-12-15T21:03:57.572Z,98284.00
2022-12-15T21:06:25.327Z,98286.75
2022-12-15T21:08:52.292Z,98298.44
2022-12-15T21:11:24.405Z,98300.06
2022-12-15T21:13:52.939Z,98294.69
2022-12-15T21:16:22.170Z,98303.38
2022-12-15T21:19:18.640Z,98296.91
2022-12-15T21:21:38.513Z,98311.53
2022-12-15T21:24:25.594Z,98303.63
2022-12-15T21:26:52.269Z,98312.66
2022-12-15T21:29:21.326Z,98309.38
2022-12-15T21:31:47.822Z,98313.53
2022-12-15T21:34:14.393Z,98316.44
2022-12-15T21:36:42.965Z,98318.16
2022-12-15T21:39:13.224Z,98314.41
2022-12-15T21:41:41.801Z,98310.91
2022-12-15T21:44:15.069Z,98316.69
2022-12-15T21:46:41.769Z,98308.66
2022-12-15T21:49:15.148Z,98310.16
2022-12-15T21:51:43.803Z,98324.00
2022-12-15T21:54:30.626Z,98320.63
2022-12-15T21:56:58.207Z,98324.75
2022-12-15T21:59:26.864Z,98328.03
2022-12-15T22:01:55.122Z,98330.06
2022-12-15T22:04:41.620Z,98330.06
2022-12-15T22:07:10.978Z,98337.09
2022-12-15T22:09:37.368Z,98335.72
2022-12-15T22:12:04.508Z,98341.59
2022-12-15T22:14:34.328Z,98343.13
2022-12-15T22:17:17.112Z,98344.91
2022-12-15T22:19:43.868Z,98342.75
2022-12-15T22:22:10.380Z,98338.09
2022-12-15T22:24:36.794Z,98355.06
2022-12-15T22:27:03.288Z,98349.16
2022-12-15T22:29:31.498Z,98349.69
2022-12-15T22:31:58.164Z,98349.41
2022-12-15T22:34:26.691Z,98356.31
2022-12-15T22:36:53.101Z,98350.53
2022-12-15T22:39:21.513Z,98353.03
2022-12-15T22:41:53.522Z,98345.25
2022-12-15T22:44:26.258Z,98349.13
2022-12-15T22:46:54.779Z,98350.16
2022-12-15T22:49:24.139Z,98348.50
2022-12-15T22:51:50.721Z,98347.00
2022-12-15T22:54:24.880Z,98357.94
2022-12-15T22:57:05.909Z,98359.41
2022-12-15T22:59:41.100Z,98347.25
2022-12-15T23:02:08.609Z,98341.84
2022-12-15T23:04:35.203Z,98349.88
2022-12-15T23:07:04.104Z,98347.88
2022-12-15T23:09:30.899Z,98346.09
2022-12-15T23:11:58.886Z,98342.31
2022-12-15T23:14:43.873Z,98344.69
2022-12-15T23:17:11.117Z,98347.47
2022-12-15T23:19:37.551Z,98345.59
2022-12-15T23:22:03.992Z,98344.22
2022-12-15T23:24:31.230Z,98347.47
2022-12-15T23:26:57.682Z,98341.97
2022-12-15T23:29:24.787Z,98340.81
2022-12-15T23:31:51.190Z,98349.59
2022-12-15T23:34:18.431Z,98355.66
2022-12-15T23:36:44.842Z,98349.75
2022-12-15T23:39:11.287Z,98345.97
2022-12-15T23:41:37.671Z,98356.16
2022-12-15T23:44:05.562Z,98355.28
2022-12-15T23:46:32.159Z,98356.38
2022-12-15T23:48:59.584Z,98365.66
2022-12-15T23:51:25.990Z,98362.63
2022-12-15T23:53:52.583Z,98361.13
2022-12-15T23:56:23.826Z,98372.31
2022-12-15T23:58:58.167Z,98359.97
